Time;durP1;ratioP1;P1;durP2;ratioP2;P2;SDS_P1;SDS_P2;PMS_P1;PMS_P2;Temp;Humidity;BMP_temperature;BMP_pressure;BME280_temperature;BME280_humidity;BME280_pressure;Samples;Min_cycle;Max_cycle;Signal;HPM_P1;HPM_P2
2021/08/23 00:00:37;;;;;;;9.90;7.17;;;17.60;99.90;;;;;;4432264;28;655526;-69
2021/08/23 00:03:25;;;;;;;9.30;6.97;;;17.50;99.90;;;;;;4431767;28;655865;-68
2021/08/23 00:06:12;;;;;;;9.43;7.23;;;17.60;99.90;;;;;;4414446;28;654659;-68
2021/08/23 00:09:00;;;;;;;12.97;7.47;;;17.50;99.90;;;;;;4437332;28;654850;-68
2021/08/23 00:11:49;;;;;;;10.93;7.40;;;17.50;99.90;;;;;;4412191;28;656611;-69
2021/08/23 00:14:37;;;;;;;9.97;8.03;;;17.50;99.90;;;;;;4419010;28;656022;-69
2021/08/23 00:17:25;;;;;;;9.13;7.13;;;17.50;99.90;;;;;;4433479;28;656012;-69
2021/08/23 00:20:16;;;;;;;11.27;7.40;;;17.40;99.90;;;;;;4414376;28;654349;-69
2021/08/23 00:23:10;;;;;;;9.27;7.30;;;17.40;99.90;;;;;;4412740;28;655315;-68
2021/08/23 00:25:58;;;;;;;11.93;7.67;;;17.40;99.90;;;;;;4391965;28;654384;-69
2021/08/23 00:28:47;;;;;;;11.03;7.37;;;17.40;99.90;;;;;;4431846;28;656202;-68
2021/08/23 00:31:34;;;;;;;12.47;7.00;;;17.40;99.90;;;;;;4412727;28;656013;-68
2021/08/23 00:34:22;;;;;;;12.83;7.10;;;17.40;99.90;;;;;;4425607;28;655559;-69
2021/08/23 00:37:11;;;;;;;10.87;7.33;;;17.40;99.90;;;;;;4425572;28;656429;-68
2021/08/23 00:39:58;;;;;;;11.27;6.57;;;17.50;99.90;;;;;;4408884;28;655565;-69
2021/08/23 00:42:46;;;;;;;9.57;7.13;;;17.50;99.90;;;;;;4425190;28;656453;-68
2021/08/23 00:45:35;;;;;;;13.73;7.07;;;17.50;99.90;;;;;;4406491;28;655589;-69
2021/08/23 00:48:23;;;;;;;13.43;6.77;;;17.50;99.90;;;;;;4412346;28;655821;-69
2021/08/23 00:51:11;;;;;;;9.03;6.87;;;17.50;99.90;;;;;;4431855;28;655854;-69
2021/08/23 00:53:58;;;;;;;13.70;7.17;;;17.50;99.90;;;;;;4405725;28;654448;-69
2021/08/23 00:56:46;;;;;;;9.03;7.00;;;17.50;99.90;;;;;;4422426;28;655575;-68
2021/08/23 00:59:35;;;;;;;10.53;6.63;;;17.50;99.90;;;;;;4414814;28;654309;-68
2021/08/23 01:02:28;;;;;;;8.93;7.00;;;17.50;99.90;;;;;;4412781;28;655491;-69
2021/08/23 01:05:17;;;;;;;9.90;7.30;;;17.40;99.90;;;;;;4410574;28;654671;-68
2021/08/23 01:08:07;;;;;;;10.10;7.53;;;17.40;99.90;;;;;;4402030;28;654538;-68
2021/08/23 01:10:54;;;;;;;11.80;7.67;;;17.30;99.90;;;;;;4406874;28;656835;-69
2021/08/23 01:13:45;;;;;;;9.73;7.23;;;17.30;99.90;;;;;;4430684;28;655365;-69
2021/08/23 01:16:32;;;;;;;8.83;7.00;;;17.40;99.90;;;;;;4401614;28;655110;-69
2021/08/23 01:19:22;;;;;;;11.40;6.97;;;17.40;99.90;;;;;;4421730;28;654585;-69
2021/08/23 01:22:09;;;;;;;9.27;6.90;;;17.40;99.90;;;;;;4408694;28;656318;-68
2021/08/23 01:24:57;;;;;;;12.17;7.67;;;17.40;99.90;;;;;;4432050;28;655102;-69
2021/08/23 01:28:01;;;;;;;12.07;7.93;;;17.40;99.90;;;;;;4408716;28;657051;-69
2021/08/23 01:30:53;;;;;;;12.07;7.10;;;17.40;99.90;;;;;;4408618;28;655900;-68
2021/08/23 01:33:42;;;;;;;12.67;7.20;;;17.30;99.90;;;;;;4408408;28;656671;-69
2021/08/23 01:36:30;;;;;;;13.10;7.90;;;17.30;99.90;;;;;;4412654;28;655917;-68
2021/08/23 01:39:17;;;;;;;9.43;7.40;;;17.30;99.90;;;;;;4415045;28;656014;-69
2021/08/23 01:42:05;;;;;;;11.17;7.30;;;17.30;99.90;;;;;;4437268;28;655216;-68
2021/08/23 01:44:53;;;;;;;11.93;7.53;;;17.30;99.90;;;;;;4415792;28;655647;-68
2021/08/23 01:47:40;;;;;;;9.67;7.33;;;17.20;99.90;;;;;;4430787;28;656164;-68
2021/08/23 01:50:29;;;;;;;11.63;7.30;;;17.20;99.90;;;;;;4416927;28;654475;-68
2021/08/23 01:53:17;;;;;;;12.10;7.40;;;17.30;99.90;;;;;;4424289;28;655250;-69
2021/08/23 01:56:05;;;;;;;12.30;7.30;;;17.20;99.90;;;;;;4433100;28;656779;-68
2021/08/23 01:58:53;;;;;;;10.67;7.67;;;17.20;99.90;;;;;;4409667;28;655700;-68
2021/08/23 02:01:41;;;;;;;12.13;7.87;;;17.20;99.90;;;;;;4426667;28;656556;-68
2021/08/23 02:04:29;;;;;;;11.40;8.20;;;17.10;99.90;;;;;;4411570;28;655633;-69
2021/08/23 02:07:18;;;;;;;8.90;7.30;;;17.10;99.90;;;;;;4434548;28;655087;-68
2021/08/23 02:10:06;;;;;;;12.57;8.10;;;17.10;99.90;;;;;;4412512;28;655263;-68
2021/08/23 02:12:54;;;;;;;11.97;7.83;;;17.20;99.90;;;;;;4410086;28;656877;-68
2021/08/23 02:15:41;;;;;;;10.40;7.80;;;17.20;99.90;;;;;;4433876;28;656029;-69
2021/08/23 02:18:29;;;;;;;11.57;7.83;;;17.20;99.90;;;;;;4409323;28;656775;-68
2021/08/23 02:21:19;;;;;;;12.93;8.20;;;17.20;99.90;;;;;;4427330;28;655300;-68
2021/08/23 02:24:09;;;;;;;12.40;7.67;;;17.20;99.90;;;;;;4411244;28;656012;-68
2021/08/23 02:26:56;;;;;;;14.07;8.23;;;17.20;99.90;;;;;;4426279;28;655585;-69
2021/08/23 02:29:44;;;;;;;11.67;8.50;;;17.20;99.90;;;;;;4396573;28;656851;-68
2021/08/23 02:32:33;;;;;;;15.73;8.20;;;17.20;99.90;;;;;;4433651;28;655487;-69
2021/08/23 02:35:21;;;;;;;11.17;8.07;;;17.20;99.90;;;;;;4433383;28;656268;-69
2021/08/23 02:38:08;;;;;;;15.00;8.47;;;17.20;99.90;;;;;;4406870;28;655728;-69
2021/08/23 02:40:57;;;;;;;10.07;8.03;;;17.20;99.90;;;;;;4428262;28;656300;-68
2021/08/23 02:43:45;;;;;;;13.17;8.83;;;17.20;99.90;;;;;;4408469;28;656797;-68
2021/08/23 02:46:32;;;;;;;11.63;8.37;;;17.30;99.90;;;;;;4410865;28;655743;-68
2021/08/23 02:49:20;;;;;;;12.40;8.63;;;17.20;99.90;;;;;;4433094;28;656590;-68
2021/08/23 02:52:08;;;;;;;12.83;8.70;;;17.20;99.90;;;;;;4414471;28;655201;-68
2021/08/23 02:54:55;;;;;;;13.70;8.47;;;17.20;99.90;;;;;;4432800;28;656909;-69
2021/08/23 02:57:44;;;;;;;10.23;8.43;;;17.20;99.90;;;;;;4414187;28;655647;-68
2021/08/23 03:00:32;;;;;;;13.27;9.17;;;17.10;99.90;;;;;;4426429;28;655432;-68
2021/08/23 03:03:20;;;;;;;14.30;9.57;;;17.10;99.90;;;;;;4433962;28;655336;-68
2021/08/23 03:06:08;;;;;;;13.27;9.17;;;17.10;99.90;;;;;;4409921;28;655341;-69
2021/08/23 03:08:55;;;;;;;12.40;9.33;;;17.10;99.90;;;;;;4429880;28;655819;-69
2021/08/23 03:11:43;;;;;;;14.20;9.50;;;17.10;99.90;;;;;;4414375;28;655478;-69
2021/08/23 03:14:32;;;;;;;15.17;9.90;;;17.10;99.90;;;;;;4435249;28;656367;-69
2021/08/23 03:17:20;;;;;;;12.83;9.00;;;17.10;99.90;;;;;;4406907;28;656867;-69
2021/08/23 03:20:08;;;;;;;18.83;8.90;;;17.10;99.90;;;;;;4413979;28;655773;-69
2021/08/23 03:22:56;;;;;;;12.77;9.40;;;17.10;99.90;;;;;;4426084;28;655375;-69
2021/08/23 03:25:44;;;;;;;14.53;9.73;;;17.00;99.90;;;;;;4394928;28;655396;-68
2021/08/23 03:28:31;;;;;;;17.97;8.97;;;17.10;99.90;;;;;;4414711;28;655700;-69
2021/08/23 03:31:20;;;;;;;18.63;9.00;;;17.10;99.90;;;;;;4392194;28;656162;-68
2021/08/23 03:34:12;;;;;;;12.53;10.20;;;17.10;99.90;;;;;;4395771;28;655372;-68
2021/08/23 03:37:01;;;;;;;12.97;9.97;;;17.10;99.90;;;;;;4382888;28;658462;-69
2021/08/23 03:39:48;;;;;;;13.15;9.80;;;17.00;99.90;;;;;;4389439;28;655732;-69
2021/08/23 03:42:36;;;;;;;13.73;9.70;;;17.00;99.90;;;;;;4413819;28;656567;-68
2021/08/23 03:45:23;;;;;;;13.40;9.43;;;17.00;99.90;;;;;;4395201;28;656352;-68
2021/08/23 03:48:12;;;;;;;12.73;9.70;;;17.00;99.90;;;;;;4411334;28;655949;-69
2021/08/23 03:51:00;;;;;;;14.07;10.00;;;17.00;99.90;;;;;;4391644;28;656524;-68
2021/08/23 03:53:47;;;;;;;12.27;9.70;;;16.90;99.90;;;;;;4394777;28;656561;-68
2021/08/23 03:56:35;;;;;;;13.73;9.73;;;16.90;99.90;;;;;;4408458;28;656159;-68
2021/08/23 03:59:23;;;;;;;14.93;10.13;;;16.90;99.90;;;;;;4395784;28;655429;-68
2021/08/23 04:02:10;;;;;;;13.30;9.63;;;16.90;99.90;;;;;;4418861;28;657267;-68
2021/08/23 04:05:41;;;;;;;15.50;10.00;;;16.90;99.90;;;;;;4395851;28;655706;-68
2021/08/23 04:08:30;;;;;;;13.67;9.90;;;17.00;99.90;;;;;;4379715;28;656340;-68
2021/08/23 04:11:17;;;;;;;17.70;10.10;;;17.00;99.90;;;;;;4396692;28;655497;-68
2021/08/23 04:14:15;;;;;;;;;;;;;;;;;;;;;
2021/08/23 04:17:13;;;;;;;12.30;9.47;;;16.90;99.90;;;;;;4318828;28;656098;-68
2021/08/23 04:20:43;;;;;;;11.20;9.37;;;17.00;99.90;;;;;;4357080;28;655903;-69
2021/08/23 04:23:32;;;;;;;12.30;9.63;;;16.90;99.90;;;;;;4341239;28;655370;-69
2021/08/23 04:26:20;;;;;;;19.00;9.13;;;17.00;99.90;;;;;;4356110;28;656106;-69
2021/08/23 04:29:07;;;;;;;13.73;9.83;;;17.00;99.90;;;;;;4359738;28;655761;-69
2021/08/23 04:31:55;;;;;;;12.87;9.47;;;17.00;99.90;;;;;;4381951;28;656527;-69
2021/08/23 04:34:42;;;;;;;10.73;8.67;;;17.00;99.90;;;;;;4359243;28;655509;-68
2021/08/23 04:37:30;;;;;;;12.67;9.93;;;17.00;99.90;;;;;;4428975;28;656819;-69
2021/08/23 04:40:19;;;;;;;23.80;12.17;;;17.00;99.90;;;;;;4409884;28;655421;-69
2021/08/23 04:43:07;;;;;;;17.77;12.23;;;16.90;99.90;;;;;;4428423;28;656717;-69
2021/08/23 04:45:54;;;;;;;16.47;11.70;;;16.90;99.90;;;;;;4411414;28;656434;-70
2021/08/23 04:48:42;;;;;;;17.00;11.43;;;16.90;99.90;;;;;;4425356;28;656528;-70
2021/08/23 04:51:30;;;;;;;20.57;12.50;;;17.00;99.90;;;;;;4422089;28;657987;-69
2021/08/23 04:54:17;;;;;;;17.23;12.50;;;17.00;99.90;;;;;;4406072;28;656789;-69
2021/08/23 04:57:06;;;;;;;25.30;12.53;;;17.10;99.90;;;;;;4434030;28;656884;-68
2021/08/23 04:59:54;;;;;;;22.20;12.70;;;17.10;99.90;;;;;;4405099;28;657527;-69
2021/08/23 05:02:41;;;;;;;21.43;12.37;;;17.20;99.90;;;;;;4429593;28;657127;-69
2021/08/23 05:05:29;;;;;;;20.33;11.50;;;17.20;99.90;;;;;;4406669;28;658349;-69
2021/08/23 05:08:19;;;;;;;16.70;12.10;;;17.20;99.90;;;;;;4430742;28;656281;-69
2021/08/23 05:11:07;;;;;;;16.73;12.33;;;17.20;99.90;;;;;;4405218;28;657237;-69
2021/08/23 05:13:56;;;;;;;20.53;11.93;;;17.20;99.90;;;;;;4428948;28;657914;-69
2021/08/23 05:16:44;;;;;;;20.40;12.90;;;17.20;99.90;;;;;;4414778;28;656762;-69
2021/08/23 05:19:32;;;;;;;17.23;12.83;;;17.30;99.90;;;;;;4425096;28;656707;-69
2021/08/23 05:22:24;;;;;;;22.23;12.30;;;17.30;99.90;;;;;;4436546;28;657758;-69
2021/08/23 05:25:13;;;;;;;19.13;12.97;;;17.30;99.90;;;;;;4409275;28;656620;-69
2021/08/23 05:28:01;;;;;;;21.10;12.47;;;17.40;99.90;;;;;;4425107;28;657303;-69
2021/08/23 05:30:51;;;;;;;18.63;13.70;;;17.30;99.90;;;;;;4410710;28;656531;-69
2021/08/23 05:33:39;;;;;;;20.77;13.40;;;17.40;99.90;;;;;;4410186;28;656425;-69
2021/08/23 05:36:26;;;;;;;23.43;14.60;;;17.40;99.90;;;;;;4429908;28;656754;-69
2021/08/23 05:39:14;;;;;;;24.50;15.43;;;17.40;99.90;;;;;;4403049;28;656556;-69
2021/08/23 05:42:01;;;;;;;21.37;14.17;;;17.40;99.90;;;;;;4425601;28;656518;-69
2021/08/23 05:44:49;;;;;;;19.80;14.03;;;17.40;99.90;;;;;;4409285;28;657311;-70
2021/08/23 05:47:39;;;;;;;19.57;14.47;;;17.40;99.90;;;;;;4430886;28;656987;-69
2021/08/23 05:50:26;;;;;;;23.87;15.40;;;17.40;99.90;;;;;;4409478;28;656933;-69
2021/08/23 05:53:14;;;;;;;25.37;16.60;;;17.30;99.90;;;;;;4412881;28;656872;-69
2021/08/23 05:56:01;;;;;;;22.60;15.87;;;17.30;99.90;;;;;;4425521;28;658255;-69
2021/08/23 05:58:49;;;;;;;23.83;18.13;;;17.30;99.90;;;;;;4407799;28;657520;-69
2021/08/23 06:01:36;;;;;;;24.97;17.90;;;17.30;99.90;;;;;;4428420;28;657112;-69
2021/08/23 06:04:26;;;;;;;26.73;17.90;;;17.30;99.90;;;;;;4410547;28;657341;-69
2021/08/23 06:07:14;;;;;;;27.52;17.70;;;17.30;99.90;;;;;;4409680;28;657493;-69
2021/08/23 06:10:02;;;;;;;27.47;17.30;;;17.30;99.90;;;;;;4427083;28;657075;-69
2021/08/23 06:12:49;;;;;;;26.00;17.17;;;17.20;99.90;;;;;;4409323;28;657922;-70
2021/08/23 06:15:37;;;;;;;23.07;15.30;;;17.20;99.90;;;;;;4431005;28;657353;-70
2021/08/23 06:18:24;;;;;;;23.00;15.07;;;17.20;99.90;;;;;;4400889;28;657531;-70
2021/08/23 06:21:13;;;;;;;20.57;13.03;;;17.20;99.90;;;;;;4425964;28;656498;-69
2021/08/23 06:24:01;;;;;;;16.53;11.63;;;17.20;99.90;;;;;;4411640;28;657493;-69
2021/08/23 06:26:48;;;;;;;17.35;12.88;;;17.20;99.90;;;;;;4409489;28;656379;-69
2021/08/23 06:29:36;;;;;;;20.10;13.33;;;17.10;99.90;;;;;;4435327;28;657499;-69
2021/08/23 06:32:23;;;;;;;20.60;13.50;;;17.10;99.90;;;;;;4405198;28;657104;-69
2021/08/23 06:35:11;;;;;;;16.87;11.30;;;17.10;99.90;;;;;;4421704;28;657280;-69
2021/08/23 06:38:00;;;;;;;14.70;10.40;;;17.10;99.90;;;;;;4411903;28;658276;-69
2021/08/23 06:40:48;;;;;;;12.23;8.63;;;17.10;99.90;;;;;;4410123;28;656333;-69
2021/08/23 06:43:36;;;;;;;15.80;10.67;;;17.00;99.90;;;;;;4432269;28;656147;-69
2021/08/23 06:46:23;;;;;;;17.60;10.97;;;17.00;99.90;;;;;;4410961;28;657032;-69
2021/08/23 06:49:11;;;;;;;15.07;9.90;;;17.00;99.90;;;;;;4429445;28;656745;-69
2021/08/23 06:51:58;;;;;;;16.20;10.67;;;17.00;99.90;;;;;;4406213;28;655485;-69
2021/08/23 06:54:47;;;;;;;17.00;10.17;;;17.00;99.90;;;;;;4426684;28;657000;-69
2021/08/23 06:57:35;;;;;;;13.90;9.60;;;17.00;99.90;;;;;;4405491;28;658786;-69
2021/08/23 07:00:23;;;;;;;11.30;8.90;;;17.00;99.90;;;;;;4413113;28;656649;-69
2021/08/23 07:03:10;;;;;;;12.63;9.00;;;17.00;99.90;;;;;;4437080;28;655874;-69
2021/08/23 07:06:00;;;;;;;14.70;9.27;;;17.00;99.90;;;;;;4410738;28;656002;-70
2021/08/23 07:08:47;;;;;;;14.73;8.93;;;16.90;99.90;;;;;;4407592;28;655368;-70
2021/08/23 07:11:37;;;;;;;12.80;9.07;;;16.90;99.90;;;;;;4434174;28;656681;-70
2021/08/23 07:14:24;;;;;;;12.57;8.23;;;16.90;99.90;;;;;;4407158;28;657364;-70
2021/08/23 07:17:13;;;;;;;12.00;9.00;;;16.80;99.90;;;;;;4433369;28;654985;-69
2021/08/23 07:20:00;;;;;;;10.97;7.97;;;16.90;99.90;;;;;;4398550;28;656523;-70
2021/08/23 07:22:48;;;;;;;11.43;8.10;;;16.80;99.90;;;;;;4407645;28;655401;-70
2021/08/23 07:25:35;;;;;;;12.73;8.33;;;16.80;99.90;;;;;;4407823;28;656671;-70
2021/08/23 07:28:24;;;;;;;11.33;7.93;;;16.80;99.90;;;;;;4386489;28;655621;-70
2021/08/23 07:31:12;;;;;;;12.63;9.40;;;16.80;99.90;;;;;;4394107;28;655612;-70
2021/08/23 07:34:00;;;;;;;13.80;9.87;;;16.80;99.90;;;;;;4408635;28;656018;-69
2021/08/23 07:36:51;;;;;;;14.23;8.85;;;16.80;99.90;;;;;;4383208;28;655876;-69
2021/08/23 07:39:38;;;;;;;13.97;8.83;;;16.80;99.90;;;;;;4387780;28;655697;-70
2021/08/23 07:42:26;;;;;;;15.13;10.13;;;16.80;99.90;;;;;;4403703;28;656255;-69
2021/08/23 07:45:17;;;;;;;13.18;9.75;;;16.90;99.90;;;;;;4384782;28;656544;-69
2021/08/23 07:48:05;;;;;;;15.63;9.27;;;16.80;99.90;;;;;;4377410;28;656801;-69
2021/08/23 07:50:53;;;;;;;14.17;9.27;;;16.80;99.90;;;;;;4394305;28;655470;-69
2021/08/23 07:53:41;;;;;;;12.50;9.13;;;16.80;99.90;;;;;;4397421;28;655788;-70
2021/08/23 07:56:30;;;;;;;14.97;9.17;;;16.80;99.90;;;;;;4386509;28;655093;-69
2021/08/23 07:59:17;;;;;;;14.50;9.40;;;16.80;99.90;;;;;;4393513;28;655496;-69
2021/08/23 08:02:07;;;;;;;11.73;7.90;;;16.80;99.90;;;;;;4406525;28;655879;-69
2021/08/23 08:04:54;;;;;;;11.87;8.27;;;16.80;99.90;;;;;;4383306;28;656769;-69
2021/08/23 08:07:42;;;;;;;16.23;8.67;;;16.80;99.90;;;;;;4401433;28;655387;-69
2021/08/23 08:10:30;;;;;;;12.63;8.07;;;16.80;99.90;;;;;;4404993;28;655973;-69
2021/08/23 08:13:18;;;;;;;12.57;8.73;;;16.70;99.90;;;;;;4394194;28;655738;-69
2021/08/23 08:16:05;;;;;;;12.20;8.57;;;16.70;99.90;;;;;;4412618;28;655837;-69
2021/08/23 08:18:55;;;;;;;11.70;7.93;;;16.80;99.90;;;;;;4395282;28;655627;-70
2021/08/23 08:21:42;;;;;;;13.00;8.37;;;16.80;99.90;;;;;;4384774;28;655942;-69
2021/08/23 08:24:30;;;;;;;13.73;8.60;;;16.80;99.90;;;;;;4419085;28;656471;-70
2021/08/23 08:27:18;;;;;;;16.33;9.13;;;16.80;99.90;;;;;;4403978;28;655382;-69
2021/08/23 08:30:06;;;;;;;13.13;8.10;;;16.80;99.90;;;;;;4427843;28;656775;-69
2021/08/23 08:32:54;;;;;;;11.13;7.90;;;16.90;99.90;;;;;;4405623;28;657525;-69
2021/08/23 08:35:45;;;;;;;11.63;7.20;;;17.00;99.90;;;;;;4428992;28;655728;-69
2021/08/23 08:38:33;;;;;;;10.87;7.47;;;17.00;99.90;;;;;;4399087;28;655667;-69
2021/08/23 08:41:22;;;;;;;12.67;8.00;;;17.00;99.90;;;;;;4427266;28;656785;-69
2021/08/23 08:44:10;;;;;;;12.90;8.17;;;17.00;99.90;;;;;;4411457;28;656272;-69
2021/08/23 08:46:58;;;;;;;13.57;7.47;;;17.10;99.90;;;;;;4413358;28;655434;-69
2021/08/23 08:49:46;;;;;;;11.32;8.20;;;17.10;99.90;;;;;;4427632;28;656523;-69
2021/08/23 08:52:35;;;;;;;10.70;7.70;;;17.20;99.90;;;;;;4416423;28;656253;-69
2021/08/23 08:55:23;;;;;;;12.00;7.73;;;17.20;99.90;;;;;;4405059;28;656445;-69
2021/08/23 08:58:10;;;;;;;12.33;6.90;;;17.40;99.90;;;;;;4429331;28;656098;-71
2021/08/23 09:00:58;;;;;;;10.33;7.00;;;17.50;99.90;;;;;;4411579;28;655419;-70
2021/08/23 09:03:46;;;;;;;10.63;6.90;;;17.50;99.90;;;;;;4429027;28;656382;-70
2021/08/23 09:06:40;;;;;;;10.20;6.60;;;17.50;99.90;;;;;;4415498;28;655408;-70
2021/08/23 09:09:29;;;;;;;10.30;7.00;;;17.50;99.90;;;;;;4389020;28;656341;-70
2021/08/23 09:12:18;;;;;;;10.33;7.17;;;17.50;99.90;;;;;;4424859;28;655488;-70
2021/08/23 09:15:06;;;;;;;8.47;5.87;;;17.60;99.90;;;;;;4428674;28;656868;-70
2021/08/23 09:18:02;;;;;;;7.90;5.20;;;17.60;99.90;;;;;;4416474;28;654916;-70
2021/08/23 09:20:57;;;;;;;9.60;5.63;;;17.70;99.90;;;;;;4412432;28;654278;-70
2021/08/23 09:23:47;;;;;;;9.00;5.60;;;17.70;99.90;;;;;;4383660;28;655070;-70
2021/08/23 09:26:36;;;;;;;7.50;5.10;;;17.70;99.90;;;;;;4409286;28;656016;-70
2021/08/23 09:29:24;;;;;;;8.73;5.60;;;17.60;99.90;;;;;;4416411;28;654304;-70
2021/08/23 09:32:11;;;;;;;9.43;5.63;;;17.80;99.90;;;;;;4435058;28;654516;-70
2021/08/23 09:34:59;;;;;;;10.23;5.60;;;17.70;99.90;;;;;;4406775;28;655605;-70
2021/08/23 09:37:50;;;;;;;10.40;5.80;;;17.80;99.90;;;;;;4429267;28;655916;-70
2021/08/23 09:40:38;;;;;;;7.43;5.40;;;18.00;99.90;;;;;;4416715;28;656070;-70
2021/08/23 09:43:30;;;;;;;11.73;6.70;;;18.20;99.90;;;;;;4435545;28;655004;-70
2021/08/23 09:46:25;;;;;;;10.47;6.53;;;18.30;99.90;;;;;;4392209;28;655951;-70
2021/08/23 09:49:14;;;;;;;8.77;6.30;;;18.50;99.90;;;;;;4384049;28;656306;-70
2021/08/23 09:52:01;;;;;;;9.60;6.47;;;18.50;99.90;;;;;;4429617;28;655028;-70
2021/08/23 09:54:59;;;;;;;10.07;6.23;;;18.60;99.90;;;;;;4415354;28;654620;-70
2021/08/23 09:57:47;;;;;;;9.57;5.83;;;18.90;99.90;;;;;;4400571;28;655544;-70
2021/08/23 10:00:37;;;;;;;8.07;5.90;;;18.90;99.90;;;;;;4439621;28;655930;-70
2021/08/23 10:03:25;;;;;;;9.57;6.80;;;18.70;99.90;;;;;;4414940;28;655674;-70
2021/08/23 10:06:12;;;;;;;11.17;6.43;;;18.50;99.90;;;;;;4415327;28;655376;-70
2021/08/23 10:09:00;;;;;;;8.30;6.30;;;18.40;99.90;;;;;;4438159;28;656605;-69
2021/08/23 10:11:48;;;;;;;12.43;7.20;;;18.20;99.90;;;;;;4408853;28;654574;-69
2021/08/23 10:14:36;;;;;;;10.67;6.90;;;18.20;99.90;;;;;;4428046;28;656788;-69
2021/08/23 10:17:25;;;;;;;9.97;7.07;;;18.10;99.90;;;;;;4415173;28;655670;-69
2021/08/23 10:20:14;;;;;;;12.30;7.70;;;18.00;99.90;;;;;;4415989;28;654683;-69
2021/08/23 10:23:02;;;;;;;11.10;7.10;;;18.00;99.90;;;;;;4433038;28;655969;-69
2021/08/23 10:25:49;;;;;;;14.40;7.93;;;18.00;99.90;;;;;;4411509;28;656031;-69
2021/08/23 10:28:38;;;;;;;13.43;8.63;;;18.10;99.90;;;;;;4423749;28;655809;-69
2021/08/23 10:31:26;;;;;;;11.70;7.50;;;18.20;99.90;;;;;;4437470;28;655667;-69
2021/08/23 10:34:16;;;;;;;14.03;7.90;;;18.40;99.90;;;;;;4410528;28;656016;-69
2021/08/23 10:37:04;;;;;;;13.77;7.93;;;18.50;99.90;;;;;;4415096;28;656089;-70
2021/08/23 10:40:00;;;;;;;10.33;8.07;;;18.50;99.90;;;;;;4427525;28;655529;-70
2021/08/23 10:42:47;;;;;;;10.07;7.63;;;18.60;99.90;;;;;;4391967;28;655240;-70
2021/08/23 10:45:39;;;;;;;12.13;8.00;;;18.60;99.90;;;;;;4436647;28;656518;-70
2021/08/23 10:48:26;;;;;;;10.23;7.23;;;18.70;99.90;;;;;;4404787;28;655819;-70
2021/08/23 10:51:28;;;;;;;11.53;7.80;;;18.80;99.90;;;;;;4414200;28;655538;-69
2021/08/23 10:54:22;;;;;;;11.00;7.17;;;19.00;99.90;;;;;;4412895;28;655252;-69
2021/08/23 10:57:10;;;;;;;12.43;7.13;;;18.80;99.90;;;;;;4375010;28;656101;-69
2021/08/23 11:00:10;;;;;;;10.40;7.30;;;18.80;99.90;;;;;;4410101;28;655852;-70
2021/08/23 11:03:00;;;;;;;9.47;6.10;;;18.80;99.90;;;;;;4390523;28;655704;-69
2021/08/23 11:05:53;;;;;;;10.97;6.70;;;18.80;99.90;;;;;;4414867;28;654681;-70
2021/08/23 11:08:42;;;;;;;12.17;6.33;;;18.80;99.90;;;;;;4410381;28;656484;-70
2021/08/23 11:11:30;;;;;;;9.07;6.20;;;18.70;99.90;;;;;;4402764;28;655980;-70
2021/08/23 11:14:19;;;;;;;9.73;6.40;;;18.60;99.90;;;;;;4416080;28;655154;-69
2021/08/23 11:17:07;;;;;;;11.17;6.80;;;18.70;99.90;;;;;;4428659;28;654821;-70
2021/08/23 11:19:55;;;;;;;9.03;6.60;;;18.60;99.90;;;;;;4410755;28;656904;-70
2021/08/23 11:22:50;;;;;;;10.83;7.03;;;18.80;99.90;;;;;;4409652;28;654582;-70
2021/08/23 11:25:41;;;;;;;10.27;6.80;;;19.00;99.90;;;;;;4394007;28;655314;-70
2021/08/23 11:28:31;;;;;;;10.13;6.30;;;19.10;99.90;;;;;;4406478;28;655600;-69
2021/08/23 11:31:19;;;;;;;8.90;5.67;;;19.20;99.90;;;;;;4411307;28;655646;-70
2021/08/23 11:34:12;;;;;;;13.27;6.30;;;19.20;99.90;;;;;;4431434;28;654399;-69
2021/08/23 11:37:05;;;;;;;8.80;6.17;;;19.30;99.90;;;;;;4389819;28;656327;-69
2021/08/23 11:40:02;;;;;;;8.73;5.97;;;19.40;99.90;;;;;;4394105;28;655271;-70
2021/08/23 11:42:54;;;;;;;7.73;5.60;;;19.40;99.90;;;;;;4409706;28;654415;-69
2021/08/23 11:45:44;;;;;;;8.67;5.53;;;19.70;99.90;;;;;;4396510;28;655112;-70
2021/08/23 11:48:33;;;;;;;9.60;5.70;;;20.00;99.90;;;;;;4425948;28;654814;-70
2021/08/23 11:51:28;;;;;;;8.87;5.90;;;20.10;99.90;;;;;;4437617;28;655221;-70
2021/08/23 11:54:15;;;;;;;6.87;5.50;;;20.40;99.90;;;;;;4402717;28;655379;-70
2021/08/23 11:57:06;;;;;;;8.10;5.93;;;20.40;99.90;;;;;;4409040;28;655002;-70
2021/08/23 11:59:56;;;;;;;6.93;5.60;;;20.20;99.90;;;;;;4414154;28;654305;-70
2021/08/23 12:02:43;;;;;;;7.33;5.30;;;20.30;99.90;;;;;;4414954;28;654376;-70
2021/08/23 12:05:35;;;;;;;8.27;6.10;;;20.60;99.90;;;;;;4433234;28;654732;-70
2021/08/23 12:08:24;;;;;;;8.30;5.40;;;20.70;99.90;;;;;;4385573;28;655280;-70
2021/08/23 12:11:12;;;;;;;5.77;4.30;;;21.00;99.90;;;;;;4432629;28;654878;-69
2021/08/23 12:14:00;;;;;;;5.90;4.77;;;20.80;99.90;;;;;;4404019;28;655523;-69
2021/08/23 12:16:51;;;;;;;8.90;5.00;;;20.60;99.90;;;;;;4414537;28;654776;-70
2021/08/23 12:19:38;;;;;;;11.57;4.80;;;20.40;99.90;;;;;;4409394;28;654704;-69
2021/08/23 12:22:26;;;;;;;5.67;4.50;;;20.20;99.90;;;;;;4421522;28;655136;-70
2021/08/23 12:25:13;;;;;;;8.60;4.97;;;20.20;99.90;;;;;;4406908;28;655110;-70
2021/08/23 12:28:03;;;;;;;7.87;4.93;;;20.00;99.90;;;;;;4431295;28;654706;-70
2021/08/23 12:30:50;;;;;;;11.13;4.83;;;19.90;99.90;;;;;;4427860;28;654843;-70
2021/08/23 12:33:39;;;;;;;8.47;4.70;;;19.90;99.90;;;;;;4409774;28;655189;-70
2021/08/23 12:36:27;;;;;;;8.07;4.43;;;20.00;99.90;;;;;;4421556;28;654436;-70
2021/08/23 12:39:15;;;;;;;8.20;4.30;;;20.10;99.90;;;;;;4427543;28;655261;-70
2021/08/23 12:42:04;;;;;;;6.33;4.47;;;20.10;99.90;;;;;;4414721;28;655461;-70
2021/08/23 12:44:52;;;;;;;10.93;3.90;;;20.20;99.90;;;;;;4432893;28;654669;-70
2021/08/23 12:47:39;;;;;;;8.57;4.17;;;20.40;99.90;;;;;;4406586;28;655869;-70
2021/08/23 12:50:29;;;;;;;6.87;3.90;;;20.90;99.90;;;;;;4427098;28;654819;-70
2021/08/23 12:53:16;;;;;;;7.63;3.73;;;21.70;99.90;;;;;;4424611;28;654792;-70
2021/08/23 12:56:04;;;;;;;4.97;3.50;;;22.30;99.90;;;;;;4414493;28;655792;-70
2021/08/23 12:58:53;;;;;;;5.87;3.63;;;23.10;99.90;;;;;;4423367;28;654863;-70
2021/08/23 13:01:41;;;;;;;4.83;3.20;;;23.10;99.90;;;;;;4428160;28;654661;-70
2021/08/23 13:04:29;;;;;;;4.07;3.20;;;22.90;99.90;;;;;;4409753;28;655100;-70
2021/08/23 13:07:18;;;;;;;4.40;3.33;;;22.70;99.90;;;;;;4433248;28;655164;-70
2021/08/23 13:10:07;;;;;;;6.37;3.50;;;22.70;99.90;;;;;;4408328;28;654763;-70
2021/08/23 13:12:54;;;;;;;6.13;3.60;;;22.20;99.90;;;;;;4408389;28;654387;-70
2021/08/23 13:15:42;;;;;;;6.10;3.67;;;22.10;99.90;;;;;;4427494;28;654483;-70
2021/08/23 13:18:31;;;;;;;4.03;3.60;;;22.00;99.90;;;;;;4435671;28;655475;-70
2021/08/23 13:21:18;;;;;;;7.00;3.67;;;21.70;99.90;;;;;;4401728;28;654538;-70
2021/08/23 13:24:07;;;;;;;5.70;3.83;;;21.60;99.90;;;;;;4431398;28;655437;-70
2021/08/23 13:26:55;;;;;;;6.20;3.27;;;21.20;99.90;;;;;;4402746;28;655530;-70
2021/08/23 13:29:43;;;;;;;5.93;3.47;;;21.00;99.90;;;;;;4417145;28;654738;-70
2021/08/23 13:32:30;;;;;;;5.75;3.50;;;21.20;99.90;;;;;;4437106;28;654578;-70
2021/08/23 13:35:18;;;;;;;7.70;3.90;;;21.10;99.90;;;;;;4417027;28;654799;-70
2021/08/23 13:38:07;;;;;;;5.73;3.83;;;21.20;99.90;;;;;;4435937;28;655654;-70
2021/08/23 13:40:56;;;;;;;6.40;3.73;;;21.40;99.90;;;;;;4400004;28;655487;-70
2021/08/23 13:43:46;;;;;;;9.17;3.80;;;21.40;99.90;;;;;;4406965;28;654383;-70
2021/08/23 13:46:33;;;;;;;5.40;3.80;;;21.70;99.90;;;;;;4416664;28;654363;-70
2021/08/23 13:49:21;;;;;;;4.93;3.60;;;21.90;99.90;;;;;;4426515;28;655024;-70
2021/08/23 13:52:09;;;;;;;6.63;3.93;;;22.10;99.90;;;;;;4412599;28;654764;-70
2021/08/23 13:54:57;;;;;;;7.30;4.20;;;22.40;99.90;;;;;;4435348;28;654683;-70
2021/08/23 13:57:46;;;;;;;5.15;3.55;;;22.60;99.90;;;;;;4416486;28;654492;-70
2021/08/23 14:00:34;;;;;;;6.07;3.60;;;22.80;99.90;;;;;;4408807;28;654689;-70
2021/08/23 14:03:21;;;;;;;5.13;3.83;;;23.10;99.90;;;;;;4435306;28;654793;-70
2021/08/23 14:06:11;;;;;;;5.27;3.87;;;23.10;99.90;;;;;;4416595;28;654737;-70
2021/08/23 14:09:00;;;;;;;5.70;3.80;;;23.30;99.90;;;;;;4416283;28;654819;-70
2021/08/23 14:11:48;;;;;;;5.77;3.60;;;24.00;99.90;;;;;;4411827;28;655225;-70
2021/08/23 14:14:37;;;;;;;4.63;3.77;;;24.50;99.90;;;;;;4434570;28;654418;-70
2021/08/23 14:17:24;;;;;;;9.35;3.88;;;24.50;99.90;;;;;;4412123;28;656109;-70